Ciudad Guayana, Venezuela
Current Conditions -  °F | °C
As of 8:00 PM on Sunday 25 Jan 2015 (Local Time) from TTPP Reporting Station
Few Clouds Few Clouds  
Wind Chill: 77°   Ceiling: Unl
Heat Index: 78°   Visibility: 6mi
Dew Point: 72°   Wind: 0mph
Humidity: 83%   Direction: NA
Pressure: 29.91"   Gusts: NA
Location:  8.37°N, 62.62°W
Report Text: TTPP 260000Z 00000KT 9999 FEW018 25/22 Q1013 NOSIG
Loading
Personal Weather Stations






























Interactive Weather Map New forecast layout! Learn more

10-Day Weather Forecast

Advertisements
Track Severe Weather on mobile